createdAt,value
2022-07-31T00:00:13.194Z,5.77
2022-07-31T00:02:39.981Z,5.40
2022-07-31T00:05:07.679Z,4.83
2022-07-31T00:07:34.412Z,5.20
2022-07-31T00:10:01.159Z,4.73
2022-07-31T00:12:27.963Z,4.93
2022-07-31T00:14:54.778Z,4.87
2022-07-31T00:17:21.645Z,5.13
2022-07-31T00:19:49.002Z,5.27
2022-07-31T00:22:15.815Z,5.60
2022-07-31T00:24:42.577Z,5.47
2022-07-31T00:27:10.981Z,5.70
2022-07-31T00:29:38.560Z,5.77
2022-07-31T00:32:05.797Z,4.67
2022-07-31T00:34:32.687Z,5.00
2022-07-31T00:37:02.550Z,4.50
2022-07-31T00:39:31.127Z,4.40
2022-07-31T00:41:58.165Z,5.40
2022-07-31T00:44:25.203Z,4.37
2022-07-31T00:46:53.545Z,4.90
2022-07-31T00:49:23.168Z,4.70
2022-07-31T00:51:49.970Z,5.13
2022-07-31T00:54:22.450Z,4.63
2022-07-31T00:56:51.275Z,5.23
2022-07-31T00:59:24.797Z,5.03
2022-07-31T01:01:52.628Z,5.20
2022-07-31T01:04:19.998Z,4.90
2022-07-31T01:06:47.951Z,5.50
2022-07-31T01:09:15.096Z,5.23
2022-07-31T01:11:51.195Z,5.40
2022-07-31T01:14:20.337Z,5.10
2022-07-31T01:16:50.037Z,5.60
2022-07-31T01:19:42.843Z,5.83
2022-07-31T01:22:35.378Z,5.70
2022-07-31T01:25:09.999Z,6.00
2022-07-31T01:28:08.462Z,5.80
2022-07-31T01:30:45.758Z,6.33
2022-07-31T01:33:18.073Z,5.07
2022-07-31T01:35:58.921Z,5.27
2022-07-31T01:38:42.423Z,5.43
2022-07-31T01:41:16.488Z,5.50
2022-07-31T01:43:47.929Z,6.00
2022-07-31T01:46:18.187Z,6.00
2022-07-31T01:48:47.187Z,5.87
2022-07-31T01:51:16.015Z,5.90
2022-07-31T01:53:47.942Z,5.63
2022-07-31T01:56:18.659Z,5.63
2022-07-31T01:58:48.488Z,5.20
2022-07-31T02:01:46.448Z,5.20
2022-07-31T02:04:16.207Z,5.17
2022-07-31T02:06:49.559Z,5.60
2022-07-31T02:09:19.927Z,5.47
2022-07-31T02:12:04.075Z,5.27
2022-07-31T02:14:35.927Z,5.63
2022-07-31T02:17:03.796Z,5.47
2022-07-31T02:19:59.902Z,6.00
2022-07-31T02:22:29.478Z,5.83
2022-07-31T02:24:56.489Z,5.40
2022-07-31T02:27:57.230Z,4.83
2022-07-31T02:30:14.283Z,5.57
2022-07-31T02:32:42.469Z,4.80
2022-07-31T02:35:10.462Z,5.20
2022-07-31T02:37:38.848Z,5.00
2022-07-31T02:40:07.912Z,5.03
2022-07-31T02:42:35.861Z,5.67
2022-07-31T02:45:03.340Z,5.13
2022-07-31T02:47:31.299Z,5.30
2022-07-31T02:50:00.614Z,5.73
2022-07-31T02:52:29.104Z,6.07
2022-07-31T02:54:57.243Z,5.53
2022-07-31T02:57:26.069Z,6.03
2022-07-31T02:59:53.019Z,5.40
2022-07-31T03:02:21.704Z,5.33
2022-07-31T03:04:48.643Z,5.03
2022-07-31T03:07:17.516Z,5.33
2022-07-31T03:09:47.667Z,5.40
2022-07-31T03:12:33.856Z,5.00
2022-07-31T03:15:02.027Z,4.93
2022-07-31T03:17:38.182Z,5.40
2022-07-31T03:20:10.306Z,4.93
2022-07-31T03:22:39.672Z,5.17
2022-07-31T03:25:08.092Z,4.73
2022-07-31T03:27:35.397Z,4.30
2022-07-31T03:30:02.873Z,4.60
2022-07-31T03:32:30.540Z,4.63
2022-07-31T03:34:57.541Z,5.47
2022-07-31T03:37:24.334Z,5.10
2022-07-31T03:39:51.242Z,5.50
2022-07-31T03:42:19.129Z,5.17
2022-07-31T03:44:47.712Z,5.33
2022-07-31T03:47:16.642Z,5.03
2022-07-31T03:49:44.452Z,5.20
2022-07-31T03:52:12.732Z,5.20
2022-07-31T03:54:41.372Z,4.90
2022-07-31T03:57:16.614Z,5.27
2022-07-31T03:59:48.600Z,5.40
2022-07-31T04:02:17.924Z,4.87
2022-07-31T04:04:50.099Z,4.87
2022-07-31T04:07:17.336Z,4.87
2022-07-31T04:09:44.360Z,5.03
2022-07-31T04:12:12.862Z,4.80
2022-07-31T04:14:40.135Z,4.80
2022-07-31T04:17:07.708Z,5.00
2022-07-31T04:19:35.650Z,4.60
2022-07-31T04:22:03.999Z,4.70
2022-07-31T04:24:31.981Z,4.93
2022-07-31T04:27:18.482Z,4.80
2022-07-31T04:29:45.967Z,4.80
2022-07-31T04:32:13.000Z,4.50
2022-07-31T04:34:46.837Z,5.20
2022-07-31T04:37:13.858Z,4.70
2022-07-31T04:39:40.943Z,4.10
2022-07-31T04:42:11.190Z,4.23
2022-07-31T04:44:38.568Z,4.23
2022-07-31T04:47:07.393Z,4.40
2022-07-31T04:49:38.815Z,4.47
2022-07-31T04:52:07.233Z,4.10
2022-07-31T04:54:36.928Z,4.50
2022-07-31T04:57:04.761Z,4.37
2022-07-31T04:59:59.528Z,4.60
2022-07-31T05:02:18.588Z,4.33
2022-07-31T05:04:45.545Z,5.00
2022-07-31T05:07:20.285Z,4.93
2022-07-31T05:09:47.881Z,4.60
2022-07-31T05:12:15.565Z,4.30
2022-07-31T05:14:44.961Z,3.97
2022-07-31T05:17:12.011Z,4.40
2022-07-31T05:19:52.569Z,4.53
2022-07-31T05:22:30.772Z,4.23
2022-07-31T05:25:26.785Z,4.40
2022-07-31T05:27:53.607Z,4.40
2022-07-31T05:30:30.081Z,4.40
2022-07-31T05:32:58.380Z,5.50
2022-07-31T05:35:25.631Z,3.63
2022-07-31T05:37:52.736Z,4.27
2022-07-31T05:40:26.953Z,4.47
2022-07-31T05:43:12.583Z,4.87
2022-07-31T05:46:00.628Z,3.63
2022-07-31T05:48:27.736Z,5.10
2022-07-31T05:50:54.705Z,4.00
2022-07-31T05:53:21.672Z,4.30
2022-07-31T05:56:27.843Z,3.53
2022-07-31T05:58:58.171Z,3.90
2022-07-31T06:01:25.109Z,4.33
2022-07-31T06:03:52.740Z,4.97
2022-07-31T06:06:51.850Z,4.60
2022-07-31T06:09:18.647Z,3.80
2022-07-31T06:11:46.387Z,3.90
2022-07-31T06:14:13.384Z,3.30
2022-07-31T06:17:12.932Z,4.07
2022-07-31T06:19:40.216Z,3.80
2022-07-31T06:22:07.463Z,3.57
2022-07-31T06:24:34.872Z,4.50
2022-07-31T06:27:02.684Z,3.50
2022-07-31T06:29:41.889Z,3.60
2022-07-31T06:32:10.231Z,3.47
2022-07-31T06:34:37.598Z,3.67
2022-07-31T06:37:05.131Z,3.60
2022-07-31T06:39:55.142Z,3.13
2022-07-31T06:42:54.805Z,3.43
2022-07-31T06:45:52.125Z,3.90
2022-07-31T06:48:39.517Z,3.50
2022-07-31T06:53:58.221Z,3.47
2022-07-31T06:56:25.059Z,3.23
2022-07-31T06:58:52.316Z,3.40
2022-07-31T07:01:19.228Z,3.23
2022-07-31T07:03:46.376Z,3.30
2022-07-31T07:06:13.828Z,3.27
2022-07-31T07:08:43.025Z,3.30
2022-07-31T07:11:15.294Z,3.30
2022-07-31T07:13:45.233Z,3.60
2022-07-31T07:16:15.136Z,3.60
2022-07-31T07:18:43.123Z,3.30
2022-07-31T07:21:11.506Z,3.30
2022-07-31T07:23:38.879Z,3.20
2022-07-31T07:26:31.718Z,3.37
2022-07-31T07:29:00.574Z,3.70
2022-07-31T07:31:29.951Z,3.17
2022-07-31T07:33:57.735Z,3.30
2022-07-31T07:36:25.616Z,3.30
2022-07-31T07:38:58.267Z,3.60
2022-07-31T07:41:26.047Z,3.30
2022-07-31T07:43:53.623Z,3.40
2022-07-31T07:46:23.838Z,3.30
2022-07-31T07:48:54.408Z,3.50
2022-07-31T07:51:35.995Z,3.40
2022-07-31T07:54:22.700Z,3.13
2022-07-31T07:57:04.649Z,3.10
2022-07-31T07:59:50.121Z,3.40
2022-07-31T08:02:44.700Z,3.23
2022-07-31T08:05:13.167Z,3.47
2022-07-31T08:07:41.962Z,3.47
2022-07-31T08:10:28.213Z,3.20
2022-07-31T08:13:15.480Z,3.10
2022-07-31T08:16:00.957Z,3.50
2022-07-31T08:18:33.033Z,3.30
2022-07-31T08:20:59.925Z,3.17
2022-07-31T08:23:28.378Z,3.17
2022-07-31T08:25:55.399Z,3.20
2022-07-31T08:28:25.718Z,3.00
2022-07-31T08:30:53.927Z,3.30
2022-07-31T08:33:23.792Z,3.27
2022-07-31T08:35:55.265Z,3.30
2022-07-31T08:38:22.079Z,3.40
2022-07-31T08:41:17.757Z,3.20
2022-07-31T08:44:02.737Z,2.80
2022-07-31T08:46:36.291Z,3.57
2022-07-31T08:49:04.781Z,3.03
2022-07-31T08:52:01.058Z,3.17
2022-07-31T08:54:50.672Z,2.90
2022-07-31T08:57:17.909Z,3.10
2022-07-31T08:59:44.943Z,3.50
2022-07-31T09:02:13.033Z,3.40
2022-07-31T09:04:54.733Z,2.80
2022-07-31T09:07:21.511Z,3.03
2022-07-31T09:09:51.567Z,3.53
2022-07-31T09:12:33.307Z,3.27
2022-07-31T09:15:18.768Z,3.00
2022-07-31T09:17:52.522Z,3.23
2022-07-31T09:20:26.904Z,3.00
2022-07-31T09:23:25.380Z,3.30
2022-07-31T09:25:58.974Z,3.00
2022-07-31T09:28:37.986Z,2.80
2022-07-31T09:31:07.633Z,2.70
2022-07-31T09:33:49.211Z,3.30
2022-07-31T09:36:25.491Z,3.10
2022-07-31T09:39:04.264Z,3.20
2022-07-31T09:42:00.954Z,2.90
2022-07-31T09:44:36.147Z,2.78
2022-07-31T09:47:03.368Z,2.80
2022-07-31T09:49:32.099Z,2.70
2022-07-31T09:52:00.688Z,2.85
2022-07-31T09:54:30.314Z,2.90
2022-07-31T09:57:12.264Z,3.00
2022-07-31T09:59:45.251Z,2.83
2022-07-31T10:02:15.409Z,2.80
2022-07-31T10:04:47.653Z,2.90
2022-07-31T10:07:31.573Z,2.92
2022-07-31T10:10:03.874Z,2.78
2022-07-31T10:12:55.563Z,3.00
2022-07-31T10:15:24.056Z,2.50
2022-07-31T10:18:11.429Z,2.83
2022-07-31T10:20:58.290Z,2.92
2022-07-31T10:23:45.054Z,3.38
2022-07-31T10:26:13.209Z,2.63
2022-07-31T10:28:40.376Z,2.60
2022-07-31T10:31:07.829Z,2.70
2022-07-31T10:33:44.453Z,2.60
2022-07-31T10:36:36.744Z,2.78
2022-07-31T10:39:38.640Z,3.83
2022-07-31T10:42:37.617Z,2.90
2022-07-31T10:45:10.136Z,2.90
2022-07-31T10:47:54.915Z,2.95
2022-07-31T10:50:42.223Z,2.25
2022-07-31T10:53:34.651Z,2.70
2022-07-31T10:56:21.140Z,2.63
2022-07-31T10:58:59.450Z,2.63
2022-07-31T11:01:52.579Z,2.55
2022-07-31T11:04:38.877Z,2.75
2022-07-31T11:07:28.271Z,2.42
2022-07-31T11:10:21.159Z,2.55
2022-07-31T11:13:12.714Z,2.72
2022-07-31T11:16:06.279Z,2.60
2022-07-31T11:19:04.877Z,2.42
2022-07-31T11:21:42.298Z,2.45
2022-07-31T11:24:18.770Z,2.88
2022-07-31T11:27:03.901Z,2.30
2022-07-31T11:29:58.899Z,2.58
2022-07-31T11:32:26.596Z,2.53
2022-07-31T11:34:55.986Z,2.72
2022-07-31T11:37:25.073Z,2.30
2022-07-31T11:39:54.041Z,2.40
2022-07-31T11:42:26.426Z,2.30
2022-07-31T11:45:15.122Z,2.30
2022-07-31T11:48:11.996Z,2.45
2022-07-31T11:50:42.325Z,2.50
2022-07-31T11:53:09.226Z,2.40
2022-07-31T11:55:49.804Z,2.55
2022-07-31T11:58:18.499Z,2.60
2022-07-31T12:00:53.917Z,2.63
2022-07-31T12:03:24.074Z,2.58
2022-07-31T12:05:52.510Z,2.42
2022-07-31T12:08:20.429Z,2.65
2022-07-31T12:10:48.437Z,3.30
2022-07-31T12:13:17.796Z,2.58
2022-07-31T12:16:14.148Z,2.55
2022-07-31T12:18:56.865Z,2.53
2022-07-31T12:21:33.165Z,2.50
2022-07-31T12:24:00.690Z,3.20
2022-07-31T12:26:32.347Z,2.78
2022-07-31T12:29:10.447Z,2.97
2022-07-31T12:31:54.455Z,2.80
2022-07-31T12:34:38.512Z,2.45
2022-07-31T12:37:08.025Z,2.40
2022-07-31T12:39:59.548Z,2.75
2022-07-31T12:42:41.638Z,2.60
2022-07-31T12:45:17.976Z,2.83
2022-07-31T12:47:51.441Z,2.70
2022-07-31T12:50:23.527Z,2.72
2022-07-31T12:52:50.616Z,2.80
2022-07-31T12:55:17.836Z,2.42
2022-07-31T12:57:51.049Z,2.40
2022-07-31T13:00:24.222Z,2.30
2022-07-31T13:02:52.500Z,2.65
2022-07-31T13:05:19.925Z,2.53
2022-07-31T13:07:46.823Z,2.70
2022-07-31T13:10:15.021Z,2.40
2022-07-31T13:12:51.449Z,2.55
2022-07-31T13:15:20.074Z,2.60
2022-07-31T13:17:50.313Z,2.60
2022-07-31T13:20:18.312Z,2.40
2022-07-31T13:22:45.308Z,2.60
2022-07-31T13:25:12.327Z,2.38
2022-07-31T13:27:39.570Z,2.90
2022-07-31T13:30:09.247Z,2.97
2022-07-31T13:32:36.070Z,2.92
2022-07-31T13:35:23.899Z,2.60
2022-07-31T13:37:50.672Z,2.72
2022-07-31T13:40:18.994Z,2.35
2022-07-31T13:42:45.842Z,2.40
2022-07-31T13:45:12.589Z,2.30
2022-07-31T13:47:50.651Z,2.30
2022-07-31T13:50:19.394Z,2.10
2022-07-31T13:52:46.143Z,2.30
2022-07-31T13:55:12.875Z,2.40
2022-07-31T13:57:39.581Z,2.40
2022-07-31T14:00:07.397Z,2.30
2022-07-31T14:02:34.246Z,2.20
2022-07-31T14:05:01.018Z,2.40
2022-07-31T14:07:45.632Z,2.22
2022-07-31T14:10:19.922Z,2.30
2022-07-31T14:12:47.093Z,2.40
2022-07-31T14:15:14.107Z,2.45
2022-07-31T14:17:40.869Z,2.10
2022-07-31T14:20:08.292Z,2.50
2022-07-31T14:22:35.051Z,2.30
2022-07-31T14:25:01.971Z,2.30
2022-07-31T14:27:29.390Z,2.40
2022-07-31T14:29:56.920Z,2.42
2022-07-31T14:32:25.008Z,2.53
2022-07-31T14:34:51.958Z,2.58
2022-07-31T14:37:18.713Z,2.40
2022-07-31T14:39:45.587Z,2.60
2022-07-31T14:42:12.768Z,2.30
2022-07-31T14:44:41.998Z,2.17
2022-07-31T14:47:10.563Z,2.40
2022-07-31T14:50:08.703Z,2.50
2022-07-31T14:52:25.475Z,2.53
2022-07-31T14:54:54.324Z,2.13
2022-07-31T14:57:22.577Z,2.50
2022-07-31T14:59:50.364Z,2.05
2022-07-31T15:02:22.131Z,2.28
2022-07-31T15:04:51.578Z,2.20
2022-07-31T15:07:34.689Z,2.00
2022-07-31T15:10:07.557Z,2.38
2022-07-31T15:12:34.595Z,2.28
2022-07-31T15:15:01.774Z,2.58
2022-07-31T15:17:28.640Z,2.67
2022-07-31T15:19:55.368Z,2.20
2022-07-31T15:22:22.470Z,2.45
2022-07-31T15:24:50.303Z,2.47
2022-07-31T15:27:19.248Z,2.30
2022-07-31T15:30:03.452Z,2.15
2022-07-31T15:32:33.729Z,2.22
2022-07-31T15:35:00.694Z,2.20
2022-07-31T15:37:27.784Z,2.10
2022-07-31T15:40:02.809Z,2.28
2022-07-31T15:42:37.563Z,2.50
2022-07-31T15:45:04.914Z,2.53
2022-07-31T15:47:31.683Z,2.72
2022-07-31T15:49:58.435Z,2.80
2022-07-31T15:52:25.261Z,2.22
2022-07-31T15:54:52.872Z,2.35
2022-07-31T15:57:21.267Z,2.42
2022-07-31T15:59:49.178Z,2.60
2022-07-31T16:02:16.084Z,2.60
2022-07-31T16:04:53.501Z,2.40
2022-07-31T16:08:32.083Z,2.30
2022-07-31T16:10:15.450Z,2.20
2022-07-31T16:12:47.779Z,2.15
2022-07-31T16:15:16.329Z,2.63
2022-07-31T16:17:44.513Z,2.70
2022-07-31T16:20:20.880Z,2.10
2022-07-31T16:22:56.222Z,2.30
2022-07-31T16:25:23.876Z,2.55
2022-07-31T16:27:50.976Z,2.50
2022-07-31T16:30:17.959Z,2.55
2022-07-31T16:32:44.877Z,2.30
2022-07-31T16:35:12.554Z,2.20
2022-07-31T16:37:50.165Z,2.25
2022-07-31T16:40:28.315Z,2.42
2022-07-31T16:42:56.476Z,2.40
2022-07-31T16:45:23.618Z,2.10
2022-07-31T16:47:51.447Z,2.47
2022-07-31T16:50:19.054Z,2.55
2022-07-31T16:52:45.740Z,2.72
2022-07-31T16:55:12.737Z,2.63
2022-07-31T16:57:40.663Z,2.47
2022-07-31T17:00:08.108Z,2.20
2022-07-31T17:02:34.848Z,2.17
2022-07-31T17:05:01.630Z,2.22
2022-07-31T17:07:28.697Z,2.60
2022-07-31T17:09:55.525Z,2.20
2022-07-31T17:12:22.322Z,2.22
2022-07-31T17:14:49.941Z,2.00
2022-07-31T17:17:18.813Z,2.53
2022-07-31T17:19:47.384Z,2.22
2022-07-31T17:22:17.595Z,2.50
2022-07-31T17:24:50.489Z,2.53
2022-07-31T17:27:18.751Z,2.60
2022-07-31T17:29:45.702Z,2.60
2022-07-31T17:32:12.806Z,2.58
2022-07-31T17:34:40.423Z,2.88
2022-07-31T17:37:07.791Z,2.00
2022-07-31T17:39:35.913Z,2.40
2022-07-31T17:42:02.878Z,2.22
2022-07-31T17:44:29.654Z,2.20
2022-07-31T17:46:57.951Z,2.55
2022-07-31T17:49:25.559Z,2.75
2022-07-31T17:51:59.295Z,2.60
2022-07-31T17:54:28.289Z,2.42
2022-07-31T17:56:55.106Z,2.20
2022-07-31T17:59:23.049Z,2.33
2022-07-31T18:01:51.778Z,2.40
2022-07-31T18:04:20.455Z,2.80
2022-07-31T18:06:49.417Z,15.15
2022-07-31T18:09:23.077Z,4.18
2022-07-31T18:11:52.143Z,3.10
2022-07-31T18:14:19.687Z,3.35
2022-07-31T18:16:47.291Z,3.05
2022-07-31T18:19:14.375Z,2.72
2022-07-31T18:21:41.395Z,3.50
2022-07-31T18:24:08.728Z,3.58
2022-07-31T18:26:36.102Z,2.80
2022-07-31T18:29:03.788Z,2.45
2022-07-31T18:31:34.208Z,2.42
2022-07-31T18:34:03.002Z,3.05
2022-07-31T18:36:29.798Z,3.13
2022-07-31T18:38:57.618Z,5.13
2022-07-31T18:41:25.727Z,3.00
2022-07-31T18:43:52.460Z,2.97
2022-07-31T18:46:20.235Z,4.85
2022-07-31T18:48:49.717Z,4.30
2022-07-31T18:51:20.132Z,3.60
2022-07-31T18:53:46.989Z,3.17
2022-07-31T18:56:14.422Z,4.00
2022-07-31T18:58:41.839Z,3.40
2022-07-31T19:01:08.910Z,3.40
2022-07-31T19:03:35.781Z,4.80
2022-07-31T19:06:03.823Z,4.80
2022-07-31T19:08:30.747Z,3.30
2022-07-31T19:10:57.570Z,3.30
2022-07-31T19:13:24.346Z,2.90
2022-07-31T19:15:55.151Z,3.67
2022-07-31T19:18:28.112Z,2.90
2022-07-31T19:21:21.322Z,3.70
2022-07-31T19:23:48.003Z,4.13
2022-07-31T19:26:15.068Z,3.70
2022-07-31T19:28:43.205Z,4.10
2022-07-31T19:31:10.581Z,3.60
2022-07-31T19:33:37.979Z,4.50
2022-07-31T19:36:05.228Z,3.27
2022-07-31T19:38:33.999Z,3.17
2022-07-31T19:41:00.759Z,2.80
2022-07-31T19:43:28.237Z,3.30
2022-07-31T19:46:09.555Z,3.50
2022-07-31T19:48:40.481Z,2.90
2022-07-31T19:51:07.719Z,2.93
2022-07-31T19:53:34.825Z,2.97
2022-07-31T19:56:05.287Z,3.20
2022-07-31T19:58:34.602Z,3.10
2022-07-31T20:01:02.581Z,2.93
2022-07-31T20:03:29.533Z,3.70
2022-07-31T20:05:56.715Z,2.80
2022-07-31T20:08:23.787Z,3.00
2022-07-31T20:10:51.332Z,3.30
2022-07-31T20:13:18.649Z,3.10
2022-07-31T20:15:52.672Z,2.97
2022-07-31T20:18:30.020Z,3.00
2022-07-31T20:20:59.594Z,3.87
2022-07-31T20:23:27.135Z,3.50
2022-07-31T20:25:54.183Z,2.80
2022-07-31T20:28:21.302Z,3.10
2022-07-31T20:30:48.255Z,3.20
2022-07-31T20:33:15.143Z,3.47
2022-07-31T20:35:48.555Z,2.87
2022-07-31T20:38:21.208Z,3.50
2022-07-31T20:40:53.577Z,3.17
2022-07-31T20:43:26.804Z,2.63
2022-07-31T20:45:57.952Z,3.43
2022-07-31T20:48:32.169Z,3.00
2022-07-31T20:51:00.508Z,3.40
2022-07-31T20:53:27.884Z,3.00
2022-07-31T20:55:54.827Z,3.00
2022-07-31T20:58:22.730Z,2.90
2022-07-31T21:00:51.509Z,3.10
2022-07-31T21:03:19.276Z,3.23
2022-07-31T21:05:46.793Z,2.90
2022-07-31T21:08:14.024Z,3.30
2022-07-31T21:10:40.943Z,2.93
2022-07-31T21:13:08.262Z,3.10
2022-07-31T21:15:43.677Z,3.13
2022-07-31T21:18:18.815Z,3.07
2022-07-31T21:20:51.466Z,3.00
2022-07-31T21:23:20.823Z,3.00
2022-07-31T21:25:47.840Z,2.70
2022-07-31T21:28:15.008Z,2.87
2022-07-31T21:30:42.012Z,2.70
2022-07-31T21:33:10.123Z,2.87
2022-07-31T21:35:39.094Z,3.17
2022-07-31T21:38:10.046Z,2.90
2022-07-31T21:40:38.704Z,3.10
2022-07-31T21:43:06.893Z,3.00
2022-07-31T21:45:51.208Z,3.10
2022-07-31T21:48:23.360Z,3.03
2022-07-31T21:50:50.439Z,2.83
2022-07-31T21:53:17.379Z,2.80
2022-07-31T21:55:44.373Z,2.87
2022-07-31T21:58:11.258Z,3.20
2022-07-31T22:00:38.547Z,3.07
2022-07-31T22:03:05.887Z,2.90
2022-07-31T22:05:52.164Z,3.03
2022-07-31T22:08:19.722Z,3.03
2022-07-31T22:10:47.075Z,2.93
2022-07-31T22:13:13.834Z,3.07
2022-07-31T22:15:58.539Z,2.73
2022-07-31T22:18:32.391Z,3.37
2022-07-31T22:21:00.391Z,3.10
2022-07-31T22:23:27.921Z,2.90
2022-07-31T22:25:55.723Z,2.60
2022-07-31T22:28:24.524Z,2.97
2022-07-31T22:30:52.797Z,3.03
2022-07-31T22:33:20.863Z,3.03
2022-07-31T22:35:59.812Z,2.90
2022-07-31T22:38:29.778Z,2.90
2022-07-31T22:40:58.055Z,3.40
2022-07-31T22:44:10.751Z,3.20
2022-07-31T22:46:12.894Z,3.13
2022-07-31T22:48:40.982Z,3.30
2022-07-31T22:51:09.084Z,3.03
2022-07-31T22:53:39.707Z,3.00
2022-07-31T22:56:07.157Z,3.00
2022-07-31T22:58:35.433Z,2.77
2022-07-31T23:01:02.234Z,3.00
2022-07-31T23:03:29.166Z,3.00
2022-07-31T23:06:02.999Z,3.00
2022-07-31T23:08:42.600Z,3.30
2022-07-31T23:11:09.331Z,2.80
2022-07-31T23:13:36.083Z,3.17
2022-07-31T23:16:06.591Z,3.03
2022-07-31T23:18:33.374Z,3.00
2022-07-31T23:21:00.196Z,3.00
2022-07-31T23:23:27.076Z,2.77
2022-07-31T23:25:54.133Z,3.00
2022-07-31T23:28:22.563Z,3.23
2022-07-31T23:30:49.562Z,3.10
2022-07-31T23:33:17.121Z,2.93
2022-07-31T23:35:44.166Z,2.93
2022-07-31T23:38:11.716Z,2.93
2022-07-31T23:40:38.715Z,2.83
2022-07-31T23:43:05.801Z,3.10
2022-07-31T23:45:33.339Z,3.00
2022-07-31T23:48:00.190Z,2.80
2022-07-31T23:50:28.131Z,3.00
2022-07-31T23:52:54.864Z,3.00
2022-07-31T23:55:22.529Z,3.20
2022-07-31T23:57:51.070Z,2.93
